Portada
METAR-TAF:

METAR-TAF

Aeropuertos :

Aeropuerto Internacional Norman Manley

Kingston, Jamaica

latitud: 17-56N, longitud: 076-47W, altitud: 3 m

Observación

El informe se hizo hace 24 minutos, a las 01:00 UTC
Viento 7 kt del norte
Temperatura 28°C
Humedad 79%
Presión 1016 hPa
Visibilidad 10 km o más
Escasas nubes a una altura de 2200 ft

METAR: MKJP 070100Z 36007KT 9999 FEW022 28/24 Q1016

Hora: 20:24 (01:24 UTC)

Pronóstico

El informe se hizo hace 2 horas y 9 minutos, a las 23:15 UTC
Pronóstico válido del 07 a las 00 UTC al 07 a las 24 UTC
Viento 5 kt del norte
Visibilidad 10 km o más
Escasas nubes a una altura de 2200 ft
Evolucionando progresivamente
del 07 a las 13 UTC al 07 a las 15 UTC
Viento 10 kt del sur
Temporalmente
del 07 a las 20 UTC al 07 a las 24 UTC
Nubes dispersas a una altura de 2000 ft
Escasas nubes a una altura de 2200 ft, Cumulonimbus.

TAF: MKJP 062315Z 0700/0724 35005KT 9999 FEW022 BECMG 0713/0715 19010KT TEMPO 0720/0724 SCT020 FEW022CB

Observaciones y pronósticos meteorológicos de más de 4000 aeropuertos (mensajes METAR y TAF).

Los puntos amarillos y rojos representan las estaciones disponibles.

Ponga el ratón en el punto deseado para ver el nombre de la estación.

Haga clic para ver las observaciones y los pronósticos meteorológicos.

Para cambiar el mapa : haga clic en los botones verdes con una cruz de color negro para hacer un zoom, en el botón verde con un guión para alejar o en las flechas verdes para mapas adyacentes.


METAR-TAF: